createdAt,value
2017-01-16T00:03:33.979Z,0.28
2017-01-16T00:08:30.278Z,0.31
2017-01-16T00:13:27.267Z,0.26
2017-01-16T00:18:23.495Z,0.22
2017-01-16T00:23:21.098Z,0.10
2017-01-16T00:28:17.156Z,0.08
2017-01-16T00:33:13.676Z,0.16
2017-01-16T00:38:10.134Z,-0.02
2017-01-16T00:43:06.653Z,-0.13
2017-01-16T00:48:03.054Z,-0.20
2017-01-16T00:52:59.312Z,-0.23
2017-01-16T00:57:56.331Z,-0.21
2017-01-16T01:02:52.531Z,-0.14
2017-01-16T01:07:49.751Z,-0.25
2017-01-16T01:12:46.749Z,-0.18
2017-01-16T01:17:43.124Z,-0.36
2017-01-16T01:22:39.379Z,-0.39
2017-01-16T01:27:37.120Z,-0.38
2017-01-16T01:32:33.475Z,-0.18
2017-01-16T01:37:29.987Z,-0.41
2017-01-16T01:42:26.427Z,-0.20
2017-01-16T01:47:22.713Z,-0.17
2017-01-16T01:52:19.116Z,-0.36
2017-01-16T01:57:15.447Z,-0.49
2017-01-16T02:02:11.823Z,-0.67
2017-01-16T02:07:08.162Z,-0.67
2017-01-16T02:12:04.713Z,-0.47
2017-01-16T02:17:01.486Z,-0.21
2017-01-16T02:21:58.133Z,0.03
2017-01-16T02:26:55.733Z,0.16
2017-01-16T02:31:52.039Z,0.37
2017-01-16T02:36:48.855Z,0.34
2017-01-16T02:41:45.267Z,0.36
2017-01-16T02:46:42.556Z,0.43
2017-01-16T02:51:39.546Z,0.36
2017-01-16T02:56:35.914Z,0.29
2017-01-16T03:01:32.350Z,0.31
2017-01-16T03:06:28.997Z,0.36
2017-01-16T03:11:25.317Z,0.31
2017-01-16T03:16:21.775Z,0.21
2017-01-16T03:21:18.914Z,0.10
2017-01-16T03:26:15.234Z,0.10
2017-01-16T03:31:12.913Z,0.05
2017-01-16T03:36:10.390Z,-0.18
2017-01-16T03:41:07.252Z,-0.06
2017-01-16T03:46:03.795Z,-0.08
2017-01-16T03:50:59.971Z,0.00
2017-01-16T03:55:57.027Z,-0.18
2017-01-16T04:00:53.612Z,-0.20
2017-01-16T04:05:50.157Z,-0.20
2017-01-16T04:10:46.733Z,-0.11
2017-01-16T04:15:43.489Z,0.01
2017-01-16T04:20:40.311Z,0.01
2017-01-16T04:25:36.969Z,0.16
2017-01-16T04:30:33.890Z,-0.07
2017-01-16T04:35:30.256Z,0.04
2017-01-16T04:40:26.266Z,-0.02
2017-01-16T04:45:22.585Z,0.08
2017-01-16T04:50:19.066Z,0.08
2017-01-16T04:55:16.852Z,0.08
2017-01-16T05:00:13.005Z,0.01
2017-01-16T05:05:10.507Z,0.01
2017-01-16T05:10:06.878Z,-0.02
2017-01-16T05:20:06.202Z,0.11
2017-01-16T05:25:02.609Z,-0.02
2017-01-16T05:29:59.140Z,0.00
2017-01-16T05:34:56.513Z,0.12
2017-01-16T05:39:52.720Z,0.08
2017-01-16T05:44:48.940Z,0.12
2017-01-16T05:49:45.199Z,0.04
2017-01-16T05:54:41.617Z,0.03
2017-01-16T05:59:38.763Z,-0.02
2017-01-16T06:04:35.454Z,-0.07
2017-01-16T06:09:32.053Z,0.00
2017-01-16T06:14:28.498Z,-0.02
2017-01-16T06:19:24.979Z,0.04
2017-01-16T06:24:21.816Z,0.04
2017-01-16T06:29:18.265Z,0.12
2017-01-16T06:34:14.675Z,0.07
2017-01-16T06:39:10.787Z,-0.03
2017-01-16T06:44:07.475Z,-0.08
2017-01-16T06:49:03.707Z,-0.02
2017-01-16T06:54:00.164Z,0.00
2017-01-16T06:58:56.530Z,-0.08
2017-01-16T07:03:53.043Z,0.10
2017-01-16T07:08:49.389Z,0.04
2017-01-16T07:13:45.821Z,0.08
2017-01-16T07:18:42.687Z,0.18
2017-01-16T07:23:39.041Z,0.22
2017-01-16T07:28:35.948Z,0.22
2017-01-16T07:33:32.929Z,0.25
2017-01-16T07:38:29.387Z,0.28
2017-01-16T07:43:25.810Z,0.31
2017-01-16T07:48:23.270Z,0.36
2017-01-16T07:53:19.518Z,0.31
2017-01-16T07:58:16.027Z,0.28
2017-01-16T08:03:12.729Z,0.15
2017-01-16T08:08:09.147Z,0.18
2017-01-16T08:13:05.778Z,0.39
2017-01-16T08:18:02.240Z,0.36
2017-01-16T08:22:58.690Z,0.44
2017-01-16T08:27:55.074Z,0.66
2017-01-16T08:32:52.120Z,0.68
2017-01-16T08:37:49.413Z,0.78
2017-01-16T08:42:45.696Z,0.80
2017-01-16T08:47:42.362Z,0.86
2017-01-16T08:52:38.788Z,0.99
2017-01-16T08:57:35.210Z,0.41
2017-01-16T09:02:31.802Z,0.47
2017-01-16T09:07:28.995Z,0.76
2017-01-16T09:12:25.518Z,0.77
2017-01-16T09:17:21.978Z,0.98
2017-01-16T09:22:18.771Z,1.04
2017-01-16T09:27:15.072Z,0.91
2017-01-16T09:32:11.572Z,1.10
2017-01-16T09:37:08.299Z,1.12
2017-01-16T09:42:04.886Z,0.60
2017-01-16T09:47:00.885Z,0.56
2017-01-16T09:51:57.051Z,0.65
2017-01-16T09:56:53.377Z,0.56
2017-01-16T10:01:49.724Z,0.60
2017-01-16T10:06:46.097Z,0.62
2017-01-16T10:11:42.860Z,0.80
2017-01-16T10:16:40.005Z,0.56
2017-01-16T10:21:36.460Z,0.76
2017-01-16T10:26:33.649Z,0.87
2017-01-16T10:31:30.037Z,0.96
2017-01-16T10:36:26.283Z,1.17
2017-01-16T10:41:22.912Z,1.10
2017-01-16T10:46:19.617Z,1.50
2017-01-16T10:51:16.136Z,1.73
2017-01-16T10:56:13.341Z,1.88
2017-01-16T11:01:09.798Z,2.67
2017-01-16T11:06:06.507Z,2.44
2017-01-16T11:11:02.969Z,2.90
2017-01-16T11:16:00.109Z,4.44
2017-01-16T11:20:58.208Z,4.14
2017-01-16T11:25:54.959Z,5.30
2017-01-16T11:30:52.788Z,3.83
2017-01-16T11:35:48.580Z,3.80
2017-01-16T11:40:44.971Z,3.51
2017-01-16T11:45:41.200Z,3.76
2017-01-16T11:50:37.582Z,4.84
2017-01-16T11:55:34.007Z,4.42
2017-01-16T12:00:30.230Z,3.07
2017-01-16T12:05:26.463Z,4.31
2017-01-16T12:10:23.072Z,4.02
2017-01-16T12:15:19.314Z,2.87
2017-01-16T12:20:15.563Z,2.43
2017-01-16T12:25:11.602Z,2.02
2017-01-16T12:30:07.669Z,1.59
2017-01-16T12:35:03.844Z,1.26
2017-01-16T12:39:59.568Z,1.22
2017-01-16T12:44:56.201Z,1.59
2017-01-16T12:49:52.688Z,1.66
2017-01-16T12:54:49.097Z,1.45
2017-01-16T12:59:45.516Z,1.44
2017-01-16T13:04:42.300Z,1.42
2017-01-16T13:09:38.685Z,1.31
2017-01-16T13:14:35.180Z,1.53
2017-01-16T13:19:31.524Z,1.56
2017-01-16T13:24:28.163Z,1.74
2017-01-16T13:29:24.802Z,1.74
2017-01-16T13:34:21.144Z,1.49
2017-01-16T13:39:18.050Z,1.13
2017-01-16T13:44:14.284Z,0.76
2017-01-16T13:49:10.249Z,0.52
2017-01-16T13:54:06.340Z,0.55
2017-01-16T13:59:02.679Z,0.84
2017-01-16T14:04:00.293Z,0.76
2017-01-16T14:08:56.410Z,0.76
2017-01-16T14:13:52.409Z,0.36
2017-01-16T14:18:48.350Z,0.41
2017-01-16T14:23:44.604Z,0.31
2017-01-16T14:28:41.141Z,0.37
2017-01-16T14:33:37.495Z,0.21
2017-01-16T14:38:33.645Z,-0.03
2017-01-16T14:43:30.639Z,-0.25
2017-01-16T14:48:26.620Z,-0.41
2017-01-16T14:53:22.722Z,-0.39
2017-01-16T14:58:18.723Z,-0.26
2017-01-16T15:03:15.905Z,-0.11
2017-01-16T15:08:12.054Z,-0.03
2017-01-16T15:13:08.302Z,-0.06
2017-01-16T15:18:04.640Z,-0.10
2017-01-16T15:23:00.563Z,-0.07
2017-01-16T15:27:57.804Z,-0.10
2017-01-16T15:32:53.983Z,-0.14
2017-01-16T15:37:50.403Z,-0.18
2017-01-16T15:42:46.614Z,-0.17
2017-01-16T15:47:42.960Z,-0.21
2017-01-16T15:52:39.238Z,-0.49
2017-01-16T15:57:35.244Z,-0.62
2017-01-16T16:02:32.821Z,-0.68
2017-01-16T16:07:28.656Z,-0.82
2017-01-16T16:12:24.962Z,-0.71
2017-01-16T16:17:21.255Z,-0.72
2017-01-16T16:22:18.364Z,-1.11
2017-01-16T16:27:14.531Z,-1.48
2017-01-16T16:32:10.742Z,-1.61
2017-01-16T16:37:06.718Z,-1.80
2017-01-16T16:42:02.931Z,-1.82
2017-01-16T16:46:58.887Z,-1.89
2017-01-16T16:51:55.112Z,-1.95
2017-01-16T16:56:51.990Z,-1.74
2017-01-16T17:01:48.308Z,-1.59
2017-01-16T17:06:45.047Z,-1.59
2017-01-16T17:11:41.418Z,-1.74
2017-01-16T17:16:37.526Z,-1.77
2017-01-16T17:21:34.144Z,-1.74
2017-01-16T17:26:30.464Z,-1.71
2017-01-16T17:31:26.618Z,-1.58
2017-01-16T17:36:23.740Z,-1.35
2017-01-16T17:41:20.043Z,-1.32
2017-01-16T17:46:16.559Z,-1.38
2017-01-16T17:51:12.793Z,-1.43
2017-01-16T17:56:09.121Z,-1.35
2017-01-16T18:01:05.462Z,-1.35
2017-01-16T18:06:01.574Z,-1.33
2017-01-16T18:10:57.899Z,-1.43
2017-01-16T18:15:54.239Z,-1.46
2017-01-16T18:20:50.738Z,-1.50
2017-01-16T18:25:47.453Z,-1.38
2017-01-16T18:30:44.498Z,-1.38
2017-01-16T18:35:40.766Z,-1.38
2017-01-16T18:40:36.915Z,-1.46
2017-01-16T18:45:33.146Z,-1.37
2017-01-16T18:50:30.373Z,-1.33
2017-01-16T18:55:26.560Z,-1.37
2017-01-16T19:00:22.857Z,-1.38
2017-01-16T19:05:18.958Z,-1.48
2017-01-16T19:10:15.830Z,-1.40
2017-01-16T19:15:11.988Z,-1.37
2017-01-16T19:20:08.350Z,-1.35
2017-01-16T19:25:04.590Z,-1.41
2017-01-16T19:30:00.810Z,-1.41
2017-01-16T19:34:57.170Z,-1.50
2017-01-16T19:39:53.474Z,-1.59
2017-01-16T19:44:49.608Z,-1.54
2017-01-16T19:49:45.944Z,-1.51
2017-01-16T19:54:42.314Z,-1.47
2017-01-16T19:59:38.703Z,-1.41
2017-01-16T20:04:35.124Z,-1.32
2017-01-16T20:09:31.445Z,-1.25
2017-01-16T20:14:27.295Z,-1.40
2017-01-16T20:19:23.593Z,-1.35
2017-01-16T20:24:20.689Z,-1.54
2017-01-16T20:29:16.630Z,-1.46
2017-01-16T20:34:13.396Z,-1.44
2017-01-16T20:39:10.054Z,-1.33
2017-01-16T20:44:06.012Z,-1.41
2017-01-16T20:49:03.691Z,-1.38
2017-01-16T20:53:59.716Z,-1.30
2017-01-16T20:58:56.079Z,-1.29
2017-01-16T21:03:52.415Z,-1.32
2017-01-16T21:08:49.132Z,-1.33
2017-01-16T21:13:45.650Z,-1.27
2017-01-16T21:18:41.712Z,-1.23
2017-01-16T21:23:38.583Z,-1.38
2017-01-16T21:28:34.810Z,-1.37
2017-01-16T21:33:31.148Z,-1.20
2017-01-16T21:38:27.382Z,-1.25
2017-01-16T21:43:23.739Z,-1.32
2017-01-16T21:48:19.965Z,-1.37
2017-01-16T21:53:16.234Z,-1.37
2017-01-16T21:58:12.410Z,-1.44
2017-01-16T22:03:08.704Z,-1.29
2017-01-16T22:08:05.190Z,-1.30
2017-01-16T22:13:02.207Z,-1.32
2017-01-16T22:17:58.450Z,-1.30
2017-01-16T22:22:54.710Z,-1.35
2017-01-16T22:27:51.068Z,-1.32
2017-01-16T22:32:47.530Z,-1.33
2017-01-16T22:37:43.680Z,-1.41
2017-01-16T22:42:40.227Z,-1.38
2017-01-16T22:47:36.548Z,-1.41
2017-01-16T22:52:32.879Z,-1.40
2017-01-16T22:57:29.389Z,-1.27
2017-01-16T23:02:25.809Z,-1.37
2017-01-16T23:07:22.127Z,-1.41
2017-01-16T23:12:18.465Z,-1.43
2017-01-16T23:17:14.842Z,-1.53
2017-01-16T23:22:11.146Z,-1.38
2017-01-16T23:27:07.496Z,-1.41
2017-01-16T23:32:03.487Z,-1.74
2017-01-16T23:36:59.761Z,-1.98
2017-01-16T23:41:55.874Z,-2.08
2017-01-16T23:46:52.142Z,-2.23
2017-01-16T23:51:48.200Z,-2.35
2017-01-16T23:56:44.532Z,-2.41
